sensor_id;sensor_type;location;lat;lon;timestamp;P1;durP1;ratioP1;P2;durP2;ratioP2
57535;SDS011;43361;49.790;8.960;2023-01-13T00:09:07;1.80;;;0.55;;
57535;SDS011;43361;49.790;8.960;2023-01-13T00:19:09;2.03;;;0.63;;
57535;SDS011;43361;49.790;8.960;2023-01-13T00:29:09;1.38;;;0.52;;
57535;SDS011;43361;49.790;8.960;2023-01-13T00:39:11;1.30;;;0.50;;
57535;SDS011;43361;49.790;8.960;2023-01-13T00:49:12;2.72;;;0.50;;
57535;SDS011;43361;49.790;8.960;2023-01-13T00:59:13;3.03;;;0.70;;
57535;SDS011;43361;49.790;8.960;2023-01-13T01:09:14;2.97;;;0.50;;
57535;SDS011;43361;49.790;8.960;2023-01-13T01:19:16;1.23;;;0.40;;
57535;SDS011;43361;49.790;8.960;2023-01-13T01:29:18;1.45;;;0.52;;
57535;SDS011;43361;49.790;8.960;2023-01-13T01:39:20;1.60;;;0.50;;
57535;SDS011;43361;49.790;8.960;2023-01-13T01:49:21;1.45;;;0.50;;
57535;SDS011;43361;49.790;8.960;2023-01-13T01:59:24;3.90;;;0.40;;
57535;SDS011;43361;49.790;8.960;2023-01-13T02:09:26;1.33;;;0.30;;
57535;SDS011;43361;49.790;8.960;2023-01-13T02:29:51;1.17;;;0.40;;
57535;SDS011;43361;49.790;8.960;2023-01-13T02:40:13;0.85;;;0.30;;
57535;SDS011;43361;49.790;8.960;2023-01-13T02:50:18;1.08;;;0.40;;
57535;SDS011;43361;49.790;8.960;2023-01-13T03:00:19;0.73;;;0.30;;
57535;SDS011;43361;49.790;8.960;2023-01-13T03:10:26;2.25;;;0.40;;
57535;SDS011;43361;49.790;8.960;2023-01-13T03:20:31;0.80;;;0.35;;
57535;SDS011;43361;49.790;8.960;2023-01-13T03:30:35;0.80;;;0.22;;
57535;SDS011;43361;49.790;8.960;2023-01-13T03:40:40;0.63;;;0.22;;
57535;SDS011;43361;49.790;8.960;2023-01-13T03:50:45;0.77;;;0.30;;
57535;SDS011;43361;49.790;8.960;2023-01-13T04:00:49;2.00;;;0.52;;
57535;SDS011;43361;49.790;8.960;2023-01-13T04:10:52;0.82;;;0.28;;
57535;SDS011;43361;49.790;8.960;2023-01-13T04:20:55;2.22;;;0.30;;
57535;SDS011;43361;49.790;8.960;2023-01-13T04:30:57;0.82;;;0.28;;
57535;SDS011;43361;49.790;8.960;2023-01-13T04:40:57;0.98;;;0.30;;
57535;SDS011;43361;49.790;8.960;2023-01-13T04:50:59;1.35;;;0.28;;
57535;SDS011;43361;49.790;8.960;2023-01-13T05:01:00;0.70;;;0.20;;
57535;SDS011;43361;49.790;8.960;2023-01-13T05:11:01;0.52;;;0.20;;
57535;SDS011;43361;49.790;8.960;2023-01-13T05:21:22;0.73;;;0.20;;
57535;SDS011;43361;49.790;8.960;2023-01-13T05:31:42;0.85;;;0.17;;
57535;SDS011;43361;49.790;8.960;2023-01-13T05:41:42;0.73;;;0.20;;
57535;SDS011;43361;49.790;8.960;2023-01-13T05:52:03;0.57;;;0.28;;
57535;SDS011;43361;49.790;8.960;2023-01-13T06:02:03;1.38;;;0.20;;
57535;SDS011;43361;49.790;8.960;2023-01-13T06:12:05;1.27;;;0.32;;
57535;SDS011;43361;49.790;8.960;2023-01-13T06:22:07;4.15;;;0.80;;
57535;SDS011;43361;49.790;8.960;2023-01-13T06:32:13;6.45;;;1.77;;
57535;SDS011;43361;49.790;8.960;2023-01-13T06:42:15;11.93;;;1.30;;
57535;SDS011;43361;49.790;8.960;2023-01-13T06:52:35;13.65;;;1.83;;
57535;SDS011;43361;49.790;8.960;2023-01-13T07:02:36;11.82;;;2.78;;
57535;SDS011;43361;49.790;8.960;2023-01-13T07:12:38;14.60;;;2.50;;
57535;SDS011;43361;49.790;8.960;2023-01-13T07:22:58;9.95;;;2.15;;
57535;SDS011;43361;49.790;8.960;2023-01-13T07:33:00;9.48;;;2.20;;
57535;SDS011;43361;49.790;8.960;2023-01-13T07:43:00;10.02;;;2.25;;
57535;SDS011;43361;49.790;8.960;2023-01-13T07:53:21;15.15;;;3.20;;
57535;SDS011;43361;49.790;8.960;2023-01-13T08:03:22;13.75;;;3.65;;
57535;SDS011;43361;49.790;8.960;2023-01-13T08:13:24;16.95;;;3.75;;
57535;SDS011;43361;49.790;8.960;2023-01-13T08:23:24;12.18;;;3.00;;
57535;SDS011;43361;49.790;8.960;2023-01-13T08:33:26;19.80;;;4.22;;
57535;SDS011;43361;49.790;8.960;2023-01-13T08:43:26;16.70;;;3.85;;
57535;SDS011;43361;49.790;8.960;2023-01-13T08:53:28;14.20;;;3.47;;
57535;SDS011;43361;49.790;8.960;2023-01-13T09:03:29;9.88;;;3.22;;
57535;SDS011;43361;49.790;8.960;2023-01-13T09:13:30;10.98;;;3.08;;
57535;SDS011;43361;49.790;8.960;2023-01-13T09:23:31;12.73;;;3.20;;
57535;SDS011;43361;49.790;8.960;2023-01-13T09:33:33;13.57;;;3.55;;
57535;SDS011;43361;49.790;8.960;2023-01-13T09:43:52;13.80;;;2.97;;
57535;SDS011;43361;49.790;8.960;2023-01-13T09:53:58;12.00;;;3.05;;
57535;SDS011;43361;49.790;8.960;2023-01-13T10:04:01;7.13;;;2.40;;
57535;SDS011;43361;49.790;8.960;2023-01-13T10:14:09;11.23;;;2.65;;
57535;SDS011;43361;49.790;8.960;2023-01-13T10:24:12;8.57;;;2.97;;
57535;SDS011;43361;49.790;8.960;2023-01-13T10:34:18;6.40;;;1.85;;
57535;SDS011;43361;49.790;8.960;2023-01-13T10:44:20;7.38;;;2.22;;
57535;SDS011;43361;49.790;8.960;2023-01-13T10:54:22;5.35;;;1.80;;
57535;SDS011;43361;49.790;8.960;2023-01-13T11:04:25;5.00;;;2.08;;
57535;SDS011;43361;49.790;8.960;2023-01-13T11:14:30;5.75;;;2.05;;
57535;SDS011;43361;49.790;8.960;2023-01-13T11:24:41;7.38;;;1.70;;
57535;SDS011;43361;49.790;8.960;2023-01-13T11:34:45;4.95;;;1.60;;
57535;SDS011;43361;49.790;8.960;2023-01-13T11:44:48;5.90;;;1.73;;
57535;SDS011;43361;49.790;8.960;2023-01-13T11:54:57;6.78;;;2.03;;
57535;SDS011;43361;49.790;8.960;2023-01-13T12:05:03;11.05;;;2.65;;
57535;SDS011;43361;49.790;8.960;2023-01-13T12:25:29;8.20;;;2.08;;
57535;SDS011;43361;49.790;8.960;2023-01-13T12:35:32;9.88;;;2.33;;
57535;SDS011;43361;49.790;8.960;2023-01-13T12:45:38;6.45;;;1.92;;
57535;SDS011;43361;49.790;8.960;2023-01-13T12:55:38;8.25;;;2.25;;
57535;SDS011;43361;49.790;8.960;2023-01-13T13:05:44;6.75;;;1.92;;
57535;SDS011;43361;49.790;8.960;2023-01-13T13:15:48;6.05;;;1.83;;
57535;SDS011;43361;49.790;8.960;2023-01-13T13:25:59;9.30;;;1.98;;
57535;SDS011;43361;49.790;8.960;2023-01-13T13:36:03;6.30;;;1.80;;
57535;SDS011;43361;49.790;8.960;2023-01-13T13:46:21;3.78;;;1.30;;
57535;SDS011;43361;49.790;8.960;2023-01-13T13:56:41;8.35;;;1.60;;
57535;SDS011;43361;49.790;8.960;2023-01-13T14:06:50;5.72;;;1.25;;
57535;SDS011;43361;49.790;8.960;2023-01-13T14:16:51;6.50;;;1.30;;
57535;SDS011;43361;49.790;8.960;2023-01-13T14:27:06;3.67;;;1.10;;
57535;SDS011;43361;49.790;8.960;2023-01-13T14:37:20;5.32;;;1.45;;
57535;SDS011;43361;49.790;8.960;2023-01-13T14:47:23;4.75;;;1.45;;
57535;SDS011;43361;49.790;8.960;2023-01-13T14:57:26;3.20;;;1.10;;
57535;SDS011;43361;49.790;8.960;2023-01-13T15:07:28;5.70;;;1.13;;
57535;SDS011;43361;49.790;8.960;2023-01-13T15:17:29;7.30;;;1.40;;
57535;SDS011;43361;49.790;8.960;2023-01-13T15:27:31;8.05;;;1.25;;
57535;SDS011;43361;49.790;8.960;2023-01-13T15:37:31;9.15;;;1.33;;
57535;SDS011;43361;49.790;8.960;2023-01-13T15:47:33;5.53;;;1.50;;
57535;SDS011;43361;49.790;8.960;2023-01-13T15:57:34;4.50;;;1.15;;
57535;SDS011;43361;49.790;8.960;2023-01-13T16:07:36;4.82;;;1.33;;
57535;SDS011;43361;49.790;8.960;2023-01-13T16:17:37;4.57;;;1.63;;
57535;SDS011;43361;49.790;8.960;2023-01-13T16:27:39;5.60;;;1.50;;
57535;SDS011;43361;49.790;8.960;2023-01-13T16:37:39;4.30;;;1.40;;
57535;SDS011;43361;49.790;8.960;2023-01-13T16:47:41;10.25;;;1.70;;
57535;SDS011;43361;49.790;8.960;2023-01-13T16:57:43;4.20;;;1.45;;
57535;SDS011;43361;49.790;8.960;2023-01-13T17:07:45;4.57;;;1.20;;
57535;SDS011;43361;49.790;8.960;2023-01-13T17:17:46;4.45;;;1.38;;
57535;SDS011;43361;49.790;8.960;2023-01-13T17:27:52;3.95;;;1.25;;
57535;SDS011;43361;49.790;8.960;2023-01-13T17:37:52;4.47;;;1.50;;
57535;SDS011;43361;49.790;8.960;2023-01-13T17:47:55;5.95;;;1.85;;
57535;SDS011;43361;49.790;8.960;2023-01-13T17:57:58;9.40;;;1.67;;
57535;SDS011;43361;49.790;8.960;2023-01-13T18:08:00;6.43;;;1.60;;
57535;SDS011;43361;49.790;8.960;2023-01-13T18:18:00;4.57;;;1.38;;
57535;SDS011;43361;49.790;8.960;2023-01-13T18:28:02;5.65;;;1.42;;
57535;SDS011;43361;49.790;8.960;2023-01-13T18:38:03;11.02;;;2.20;;
57535;SDS011;43361;49.790;8.960;2023-01-13T18:48:05;6.18;;;1.98;;
57535;SDS011;43361;49.790;8.960;2023-01-13T18:58:06;7.93;;;1.80;;
57535;SDS011;43361;49.790;8.960;2023-01-13T19:08:08;4.97;;;1.65;;
57535;SDS011;43361;49.790;8.960;2023-01-13T19:18:09;6.85;;;1.83;;
57535;SDS011;43361;49.790;8.960;2023-01-13T19:28:11;3.65;;;1.52;;
57535;SDS011;43361;49.790;8.960;2023-01-13T19:38:11;5.78;;;1.48;;
57535;SDS011;43361;49.790;8.960;2023-01-13T19:48:13;6.57;;;1.40;;
57535;SDS011;43361;49.790;8.960;2023-01-13T19:58:15;7.22;;;1.70;;
57535;SDS011;43361;49.790;8.960;2023-01-13T20:08:19;4.18;;;1.30;;
57535;SDS011;43361;49.790;8.960;2023-01-13T20:18:20;4.05;;;1.48;;
57535;SDS011;43361;49.790;8.960;2023-01-13T20:28:21;4.95;;;1.30;;
57535;SDS011;43361;49.790;8.960;2023-01-13T20:38:22;4.55;;;1.20;;
57535;SDS011;43361;49.790;8.960;2023-01-13T20:48:24;4.85;;;1.30;;
57535;SDS011;43361;49.790;8.960;2023-01-13T20:58:25;5.97;;;1.33;;
57535;SDS011;43361;49.790;8.960;2023-01-13T21:08:26;4.15;;;1.23;;
57535;SDS011;43361;49.790;8.960;2023-01-13T21:18:27;3.15;;;1.10;;
57535;SDS011;43361;49.790;8.960;2023-01-13T21:28:47;2.95;;;0.95;;
57535;SDS011;43361;49.790;8.960;2023-01-13T21:38:49;3.60;;;0.98;;
57535;SDS011;43361;49.790;8.960;2023-01-13T21:48:51;3.72;;;1.30;;
57535;SDS011;43361;49.790;8.960;2023-01-13T21:58:51;3.63;;;1.10;;
57535;SDS011;43361;49.790;8.960;2023-01-13T22:08:54;4.68;;;1.00;;
57535;SDS011;43361;49.790;8.960;2023-01-13T22:18:55;6.13;;;1.35;;
57535;SDS011;43361;49.790;8.960;2023-01-13T22:28:56;6.32;;;1.25;;
57535;SDS011;43361;49.790;8.960;2023-01-13T22:38:57;3.63;;;1.00;;
57535;SDS011;43361;49.790;8.960;2023-01-13T22:49:00;7.25;;;1.02;;
57535;SDS011;43361;49.790;8.960;2023-01-13T22:59:01;3.25;;;0.90;;
57535;SDS011;43361;49.790;8.960;2023-01-13T23:09:04;3.08;;;1.10;;
57535;SDS011;43361;49.790;8.960;2023-01-13T23:19:05;4.30;;;1.20;;
57535;SDS011;43361;49.790;8.960;2023-01-13T23:29:08;3.50;;;1.20;;
57535;SDS011;43361;49.790;8.960;2023-01-13T23:39:09;4.50;;;0.73;;
57535;SDS011;43361;49.790;8.960;2023-01-13T23:49:11;1.80;;;0.90;;
57535;SDS011;43361;49.790;8.960;2023-01-13T23:59:11;3.70;;;1.17;;
